Shanesville, Pennsylvania
Current Conditions -  °F | °C
As of 10:54 AM on Thursday 27 Nov 2014 (Local Time) from KPTW Reporting Station
Overcast Overcast  
Wind Chill: 28°   Ceiling: 2000
Heat Index: 35°   Visibility: 10mi
Dew Point: 28°   Wind: 9mph
Humidity: 76%   Direction: 330°NNW
Pressure: 30.04"   Gusts: NA
Location:  40.3481°N, 75.6818°W
Report Text: KPTW 271554Z AUTO 33008KT 10SM OVC020 02/M02 A3004 RMK AO2 SLP172 T00171022
Loading
Personal Weather Stations






























Interactive Weather Map New forecast layout! Learn more

10-Day Weather Forecast

Advertisements
Track Severe Weather on mobile